Time;durP1;ratioP1;P1;durP2;ratioP2;P2;SDS_P1;SDS_P2;PMS_P1;PMS_P2;Temp;Humidity;BMP_temperature;BMP_pressure;BME280_temperature;BME280_humidity;BME280_pressure;Samples;Min_cycle;Max_cycle;Signal;HPM_P1;HPM_P2
2022/09/15 00:01:41;;;;;;;2.83;1.58;;;;;;;22.69;64.78;98429.63;4471680;32;33264;-78
2022/09/15 00:04:10;;;;;;;2.55;1.30;;;;;;;22.64;65.46;98415.09;4468016;32;33946;-76
2022/09/15 00:06:39;;;;;;;3.05;1.40;;;;;;;22.45;66.60;98398.13;4470502;32;33679;-77
2022/09/15 00:09:08;;;;;;;2.40;1.55;;;;;;;22.20;67.73;98380.78;4470456;32;34352;-78
2022/09/15 00:11:37;;;;;;;3.03;1.45;;;;;;;22.57;67.42;98377.78;4471908;32;33454;-78
2022/09/15 00:14:08;;;;;;;2.30;1.52;;;;;;;22.41;68.37;98398.50;4465884;32;33815;-78
2022/09/15 00:16:38;;;;;;;2.55;1.42;;;;;;;22.40;68.73;98426.75;4471885;32;33548;-77
2022/09/15 00:19:07;;;;;;;3.80;1.67;;;;;;;22.21;69.20;98411.53;4470371;32;33502;-77
2022/09/15 00:21:40;;;;;;;3.47;2.12;;;;;;;22.36;68.71;98423.50;4475910;32;33568;-77
2022/09/15 00:24:09;;;;;;;2.12;1.40;;;;;;;22.33;68.89;98428.19;4456386;32;33470;-79
2022/09/15 00:26:38;;;;;;;2.25;1.40;;;;;;;22.40;68.62;98439.94;4470518;32;33682;-78
2022/09/15 00:29:07;;;;;;;2.15;1.42;;;;;;;22.31;68.89;98453.91;4472647;32;34457;-79
2022/09/15 00:31:36;;;;;;;1.90;1.37;;;;;;;22.43;68.62;98460.00;4470157;32;33337;-80
2022/09/15 00:34:06;;;;;;;2.17;1.50;;;;;;;22.29;69.18;98466.41;4474414;32;33614;-78
2022/09/15 00:36:34;;;;;;;2.07;1.40;;;;;;;22.38;69.02;98484.16;4465652;32;34007;-78
2022/09/15 00:39:03;;;;;;;1.83;1.20;;;;;;;22.35;69.27;98505.53;4465319;32;33936;-77
2022/09/15 00:41:32;;;;;;;2.00;1.40;;;;;;;22.26;69.70;98503.62;4469776;32;33901;-79
2022/09/15 00:44:03;;;;;;;3.03;1.65;;;;;;;22.33;69.50;98513.59;4472782;32;33423;-78
2022/09/15 00:46:35;;;;;;;2.37;1.35;;;;;;;22.26;69.75;98512.41;4471335;32;33739;-78
2022/09/15 00:49:08;;;;;;;2.17;1.40;;;;;;;22.00;70.94;98508.31;4473211;32;33690;-78
2022/09/15 00:51:39;;;;;;;3.05;1.48;;;;;;;21.97;71.15;98512.03;4471123;32;34231;-78
2022/09/15 00:54:11;;;;;;;2.97;1.65;;;;;;;21.68;72.41;98511.69;4471241;32;35184;-79
2022/09/15 00:56:41;;;;;;;3.53;2.05;;;;;;;21.89;71.53;98514.44;4472341;32;34382;-79
2022/09/15 00:59:13;;;;;;;3.42;2.30;;;;;;;21.93;71.31;98505.31;4473213;32;35178;-79
2022/09/15 01:01:44;;;;;;;3.67;1.90;;;;;;;21.77;72.16;98494.28;4468321;32;33964;-77
2022/09/15 01:04:16;;;;;;;3.67;1.90;;;;;;;21.83;71.92;98494.63;4474081;32;31731;-77
2022/09/15 01:06:47;;;;;;;2.75;1.92;;;;;;;22.08;71.04;98506.72;4474851;32;34368;-77
2022/09/15 01:09:16;;;;;;;;;;;;;;;21.85;72.09;98502.44;4457571;32;32753;-77
2022/09/15 01:11:45;;;;;;;3.03;1.92;;;;;;;21.96;71.61;98497.16;4471619;32;32946;-79
2022/09/15 01:14:14;;;;;;;4.43;2.15;;;;;;;22.12;70.97;98499.41;4473710;32;33378;-77
2022/09/15 01:16:51;;;;;;;3.47;1.83;;;;;;;21.85;72.05;98492.72;4470232;32;33551;-77
2022/09/15 01:20:08;;;;;;;3.15;1.90;;;;;;;21.78;72.63;98490.69;4477720;32;34036;-78
2022/09/15 01:22:50;;;;;;;3.62;1.85;;;;;;;21.67;73.11;98483.59;4456243;32;33373;-79
2022/09/15 01:25:31;;;;;;;3.35;2.25;;;;;;;21.91;72.00;98491.37;4472809;32;33654;-80
2022/09/15 01:28:35;;;;;;;1.95;1.58;;;;;;;21.89;72.09;98483.59;4461699;32;34510;-77
2022/09/15 01:31:10;;;;;;;3.50;2.20;;;;;;;22.10;71.04;98491.59;4466051;32;34273;-79
2022/09/15 01:33:42;;;;;;;3.50;1.80;;;;;;;22.00;71.38;98487.19;4471921;32;33610;-79
2022/09/15 01:36:14;;;;;;;4.55;1.90;;;;;;;21.92;71.63;98491.28;4469353;32;33131;-77
2022/09/15 01:38:49;;;;;;;3.83;1.80;;;;;;;21.88;71.67;98503.03;4475305;32;34529;-77
2022/09/15 01:41:24;;;;;;;2.97;1.77;;;;;;;21.94;71.29;98497.28;4469440;32;33436;-78
2022/09/15 01:43:55;;;;;;;3.03;1.75;;;;;;;21.83;71.68;98494.63;4470575;32;33476;-77
2022/09/15 01:46:29;;;;;;;4.82;1.87;;;;;;;22.04;70.77;98496.56;4467187;32;33497;-77
2022/09/15 01:48:59;;;;;;;3.08;1.90;;;;;;;21.78;71.86;98501.25;4470773;32;32948;-78
2022/09/15 01:51:28;;;;;;;6.90;1.73;;;;;;;22.01;71.06;98509.97;4474627;32;34369;-77
2022/09/15 01:53:59;;;;;;;3.72;1.98;;;;;;;21.94;71.00;98507.00;4467430;32;33951;-78
2022/09/15 01:56:28;;;;;;;3.25;1.95;;;;;;;21.95;70.91;98498.13;4465997;32;34536;-77
2022/09/15 01:58:56;;;;;;;1.98;1.50;;;;;;;21.90;70.96;98495.00;4473030;32;34195;-78
2022/09/15 02:01:31;;;;;;;3.22;1.75;;;;;;;21.67;71.89;98496.78;4475849;32;34127;-76
2022/09/15 02:04:04;;;;;;;4.40;1.60;;;;;;;22.00;70.60;98500.41;4474288;32;34030;-78
2022/09/15 02:06:38;;;;;;;4.12;2.58;;;;;;;21.73;71.76;98499.81;4468101;32;33517;-78
2022/09/15 02:09:13;;;;;;;4.37;1.95;;;;;;;21.85;71.35;98494.53;4471845;32;33671;-79
2022/09/15 02:11:51;;;;;;;3.37;1.77;;;;;;;21.92;71.05;98493.91;4470519;32;33403;-79
2022/09/15 02:14:27;;;;;;;5.43;1.80;;;;;;;21.81;71.14;98491.28;4476243;32;32661;-77
2022/09/15 02:16:59;;;;;;;3.15;1.67;;;;;;;21.72;71.55;98495.50;4475902;32;33660;-79
2022/09/15 02:19:31;;;;;;;2.72;1.58;;;;;;;21.65;71.79;98499.56;4471594;32;33918;-77
2022/09/15 02:22:06;;;;;;;4.57;2.25;;;;;;;21.71;71.53;98495.59;4468446;32;34355;-79
2022/09/15 02:24:39;;;;;;;2.65;1.75;;;;;;;21.78;71.31;98495.97;4471974;32;33257;-78
2022/09/15 02:27:12;;;;;;;1.92;1.40;;;;;;;21.80;71.37;98497.53;4471664;32;33629;-78
2022/09/15 02:29:43;;;;;;;4.87;1.92;;;;;;;21.79;71.27;98506.41;4475828;32;33591;-76
2022/09/15 02:32:14;;;;;;;2.75;1.60;;;;;;;21.71;71.62;98503.53;4469422;32;33743;-80
2022/09/15 02:34:47;;;;;;;3.17;2.05;;;;;;;21.69;71.70;98498.34;4473694;32;32966;-76
2022/09/15 02:37:16;;;;;;;1.77;1.20;;;;;;;21.57;72.24;98499.31;4469957;32;34684;-79
2022/09/15 02:39:47;;;;;;;2.03;1.23;;;;;;;21.91;70.70;98497.50;4479737;32;34564;-78
2022/09/15 02:42:23;;;;;;;1.75;1.10;;;;;;;21.77;71.13;98494.28;4473889;32;34372;-79
2022/09/15 02:44:52;;;;;;;3.33;1.20;;;;;;;21.65;71.21;98494.28;4473692;32;32773;-77
2022/09/15 02:47:22;;;;;;;2.00;1.30;;;;;;;21.73;70.67;98491.87;4474027;32;33826;-80
2022/09/15 02:49:52;;;;;;;3.25;1.10;;;;;;;21.90;69.99;98485.28;4470641;32;34180;-77
2022/09/15 02:52:21;;;;;;;1.60;0.90;;;;;;;21.96;69.23;98486.59;4474881;32;33689;-79
2022/09/15 02:54:50;;;;;;;1.12;1.02;;;;;;;21.93;69.57;98487.66;4469014;32;34168;-80
2022/09/15 02:57:19;;;;;;;1.90;0.90;;;;;;;21.84;69.66;98493.69;4464915;32;33936;-79
2022/09/15 03:02:35;;;;;;;2.33;1.15;;;;;;;22.00;68.88;98495.12;4477215;32;33421;-78
2022/09/15 03:05:05;;;;;;;1.37;1.00;;;;;;;21.94;69.15;98501.72;4474020;32;34373;-77
2022/09/15 03:07:34;;;;;;;1.27;0.85;;;;;;;21.86;69.45;98506.75;4466193;32;34242;-77
2022/09/15 03:10:03;;;;;;;2.83;1.27;;;;;;;21.83;69.85;98507.00;4471743;32;33494;-77
2022/09/15 03:12:37;;;;;;;2.97;1.10;;;;;;;21.74;70.11;98512.03;4468999;32;34887;-79
2022/09/15 03:15:07;;;;;;;4.07;0.93;;;;;;;21.89;69.78;98504.72;4472268;32;33032;-79
2022/09/15 03:17:40;;;;;;;1.12;0.80;;;;;;;21.77;70.21;98516.25;4468599;32;34095;-77
2022/09/15 03:20:10;;;;;;;2.35;1.12;;;;;;;21.76;70.36;98511.91;4471872;32;33452;-78
2022/09/15 03:22:39;;;;;;;2.85;1.77;;;;;;;21.91;69.89;98512.50;4473368;32;33541;-77
2022/09/15 03:25:09;;;;;;;1.10;0.75;;;;;;;21.90;69.85;98508.22;4469267;32;34049;-77
2022/09/15 03:27:38;;;;;;;2.78;1.00;;;;;;;21.88;69.97;98508.31;4476725;32;34529;-79
2022/09/15 03:30:09;;;;;;;2.37;1.27;;;;;;;21.77;70.46;98497.78;4468064;32;34022;-79
2022/09/15 03:32:39;;;;;;;1.75;1.10;;;;;;;21.87;70.20;98503.19;4471176;32;33550;-79
2022/09/15 03:35:09;;;;;;;2.10;1.35;;;;;;;21.90;70.17;98492.37;4471594;32;33935;-80
2022/09/15 03:37:37;;;;;;;1.75;0.93;;;;;;;21.91;69.61;98505.44;4472725;32;33860;-78
2022/09/15 03:40:08;;;;;;;1.12;0.80;;;;;;;22.06;69.05;98500.75;4470629;32;34930;-76
2022/09/15 03:42:36;;;;;;;4.28;1.25;;;;;;;22.14;68.54;98493.06;4470875;32;33115;-79
2022/09/15 03:45:06;;;;;;;2.30;0.80;;;;;;;21.94;69.31;98491.16;4456480;32;34091;-79
2022/09/15 03:47:34;;;;;;;1.20;0.80;;;;;;;22.10;67.69;98493.41;4474811;32;33873;-78
2022/09/15 03:50:06;;;;;;;1.48;0.70;;;;;;;21.95;68.15;98496.31;4473307;32;34816;-77
2022/09/15 03:52:35;;;;;;;1.90;1.33;;;;;;;21.94;67.86;98499.09;4469864;32;34506;-78
2022/09/15 03:55:04;;;;;;;2.97;1.50;;;;;;;21.89;68.04;98512.66;4473392;32;32890;-78
2022/09/15 03:57:33;;;;;;;0.70;0.70;;;;;;;21.78;68.24;98520.56;4470441;32;33043;-78
2022/09/15 04:00:02;;;;;;;0.95;0.70;;;;;;;21.93;67.76;98515.88;4480435;32;33706;-77
2022/09/15 04:02:31;;;;;;;1.37;0.77;;;;;;;21.81;68.25;98512.41;4464032;32;188410;-77
2022/09/15 04:05:01;;;;;;;1.10;1.00;;;;;;;21.81;68.40;98522.97;4471305;32;33303;-78
2022/09/15 04:07:31;;;;;;;1.33;0.77;;;;;;;21.85;67.78;98524.41;4470668;32;33851;-79
2022/09/15 04:10:01;;;;;;;3.90;1.07;;;;;;;21.74;68.10;98522.59;4478002;32;32373;-78
2022/09/15 04:12:31;;;;;;;1.58;0.85;;;;;;;21.77;68.14;98520.66;4469931;32;34370;-78
2022/09/15 04:15:00;;;;;;;1.23;0.90;;;;;;;21.69;68.61;98516.84;4473191;32;32321;-79
2022/09/15 04:17:28;;;;;;;1.52;0.80;;;;;;;21.82;68.46;98508.81;4471416;32;33589;-80
2022/09/15 04:19:59;;;;;;;2.97;1.02;;;;;;;21.93;68.34;98515.88;4473871;32;34536;-80
2022/09/15 04:22:31;;;;;;;1.12;0.90;;;;;;;21.74;68.88;98519.94;4476216;32;34528;-77
2022/09/15 04:25:00;;;;;;;1.75;0.80;;;;;;;21.82;68.77;98514.09;4474162;32;32862;-77
2022/09/15 04:27:30;;;;;;;1.00;0.85;;;;;;;21.60;69.49;98508.78;4472459;32;33563;-77
2022/09/15 04:29:59;;;;;;;1.50;1.10;;;;;;;21.71;68.35;98517.56;4470996;32;33466;-79
2022/09/15 04:32:29;;;;;;;1.62;0.95;;;;;;;21.70;68.53;98520.34;4475362;32;33671;-79
2022/09/15 04:34:58;;;;;;;1.75;1.00;;;;;;;21.66;68.61;98545.28;4471407;32;33923;-78
2022/09/15 04:37:26;;;;;;;2.45;1.37;;;;;;;21.49;69.60;98551.84;4470547;32;33695;-78
2022/09/15 04:39:56;;;;;;;1.40;0.98;;;;;;;21.49;69.84;98559.75;4470274;32;33505;-78
2022/09/15 04:42:25;;;;;;;1.55;0.95;;;;;;;21.47;70.28;98551.13;4470259;32;34022;-78
2022/09/15 04:44:54;;;;;;;2.65;1.33;;;;;;;21.64;69.86;98547.19;4468977;32;32382;-78
2022/09/15 04:47:22;;;;;;;3.92;1.05;;;;;;;21.43;71.01;98549.66;4469628;32;34436;-78
2022/09/15 04:49:51;;;;;;;2.28;1.12;;;;;;;21.71;70.12;98541.31;4469130;32;34505;-78
2022/09/15 04:52:20;;;;;;;4.47;1.60;;;;;;;21.67;70.42;98528.47;4466690;32;34108;-77
2022/09/15 04:54:48;;;;;;;2.50;1.30;;;;;;;21.69;70.60;98527.38;4475530;32;33841;-76
2022/09/15 04:57:19;;;;;;;2.65;1.15;;;;;;;21.63;71.17;98512.03;4466950;32;34179;-78
2022/09/15 04:59:47;;;;;;;1.92;1.20;;;;;;;21.68;71.26;98512.53;4468277;32;33986;-77
2022/09/15 05:02:16;;;;;;;1.92;1.33;;;;;;;21.62;71.51;98512.97;4465592;32;33867;-77
2022/09/15 05:04:45;;;;;;;1.48;1.00;;;;;;;21.82;70.96;98521.16;4467758;32;34538;-78
2022/09/15 05:07:14;;;;;;;3.45;1.60;;;;;;;21.87;70.99;98526.94;4472748;32;32413;-78
2022/09/15 05:09:43;;;;;;;3.08;1.00;;;;;;;21.67;72.11;98533.75;4465829;32;33872;-79
2022/09/15 05:12:11;;;;;;;2.42;1.20;;;;;;;21.83;71.68;98530.78;4459759;32;34392;-78
2022/09/15 05:14:41;;;;;;;2.37;1.15;;;;;;;22.00;70.93;98540.84;4459467;32;33880;-79
2022/09/15 05:17:10;;;;;;;3.75;1.10;;;;;;;21.84;71.70;98543.88;4473804;32;34247;-77
2022/09/15 05:19:39;;;;;;;2.40;1.25;;;;;;;21.71;72.56;98559.78;4469232;32;32434;-79
2022/09/15 05:22:08;;;;;;;3.00;1.33;;;;;;;21.84;72.28;98566.75;4458927;32;33618;-79
2022/09/15 05:24:36;;;;;;;3.08;1.37;;;;;;;22.00;71.60;98577.81;4463710;32;33657;-78
2022/09/15 05:27:05;;;;;;;2.62;1.20;;;;;;;22.05;71.38;98580.94;4471983;32;34274;-77
2022/09/15 05:29:34;;;;;;;3.17;1.40;;;;;;;22.04;71.54;98575.78;4466025;32;33728;-77
2022/09/15 05:32:04;;;;;;;3.25;1.40;;;;;;;21.98;71.81;98574.44;4467882;32;33655;-76
2022/09/15 05:34:33;;;;;;;2.45;1.17;;;;;;;21.97;71.83;98588.63;4470753;32;32400;-76
2022/09/15 05:37:01;;;;;;;1.75;1.02;;;;;;;22.00;72.04;98585.75;4466498;32;33468;-79
2022/09/15 05:39:30;;;;;;;1.58;1.02;;;;;;;21.96;72.42;98584.28;4452285;32;33786;-79
2022/09/15 05:41:59;;;;;;;2.25;1.12;;;;;;;22.02;72.27;98589.09;4463196;32;34461;-78
2022/09/15 05:44:28;;;;;;;3.12;1.73;;;;;;;22.11;71.69;98577.81;4461051;32;33002;-78
2022/09/15 05:47:01;;;;;;;3.08;1.45;;;;;;;22.24;71.12;98588.28;4455589;32;33273;-79
2022/09/15 05:49:31;;;;;;;2.33;1.33;;;;;;;22.05;72.10;98601.22;4478323;32;34854;-76
2022/09/15 05:52:00;;;;;;;3.53;1.42;;;;;;;22.14;71.76;98582.84;4473318;32;34440;-79
2022/09/15 05:54:29;;;;;;;2.20;1.52;;;;;;;22.44;70.50;98581.41;4473065;32;33425;-79
2022/09/15 05:56:58;;;;;;;1.77;1.17;;;;;;;22.24;71.17;98577.72;4471977;32;34367;-77
2022/09/15 05:59:27;;;;;;;1.75;1.17;;;;;;;22.30;71.19;98573.75;4477681;32;34573;-78
2022/09/15 06:01:56;;;;;;;2.22;1.30;;;;;;;22.61;69.76;98572.12;4477035;32;33812;-78
2022/09/15 06:04:25;;;;;;;4.05;1.67;;;;;;;22.62;69.92;98587.06;4474241;32;32569;-79
2022/09/15 06:06:55;;;;;;;1.77;1.30;;;;;;;22.37;70.92;98583.72;4473006;32;33849;-76
2022/09/15 06:09:24;;;;;;;2.97;1.20;;;;;;;22.52;70.44;98589.59;4473954;32;33683;-78
2022/09/15 06:11:53;;;;;;;4.47;1.60;;;;;;;22.79;69.11;98593.63;4478769;32;33554;-79
2022/09/15 06:14:21;;;;;;;3.42;1.30;;;;;;;22.80;69.05;98590.00;4473492;32;33269;-79
2022/09/15 06:16:50;;;;;;;2.58;1.35;;;;;;;22.44;70.66;98596.44;4473866;32;33735;-77
2022/09/15 06:19:19;;;;;;;4.18;1.83;;;;;;;22.53;70.37;98593.91;4462079;32;33242;-79
2022/09/15 06:21:47;;;;;;;3.65;1.00;;;;;;;22.88;69.01;98592.00;4478098;32;33501;-78
2022/09/15 06:24:17;;;;;;;2.70;1.20;;;;;;;22.66;69.94;98587.62;4473837;32;33300;-79
2022/09/15 06:26:46;;;;;;;1.37;1.23;;;;;;;22.87;69.38;98601.75;4473748;32;32736;-77
2022/09/15 06:29:18;;;;;;;2.72;1.55;;;;;;;22.88;69.07;98615.81;4472275;32;33623;-76
2022/09/15 06:31:47;;;;;;;3.28;1.55;;;;;;;22.84;69.11;98631.09;4472458;32;33552;-76
2022/09/15 06:34:16;;;;;;;3.37;1.67;;;;;;;22.54;70.56;98619.38;4479290;32;33383;-79
2022/09/15 06:36:45;;;;;;;3.22;1.23;;;;;;;22.75;70.11;98608.03;4473647;32;33864;-79
2022/09/15 06:39:14;;;;;;;3.03;2.22;;;;;;;23.06;68.82;98618.81;4473722;32;33749;-79
2022/09/15 06:41:44;;;;;;;5.05;1.42;;;;;;;23.06;68.76;98617.00;4468420;32;34512;-79
2022/09/15 06:44:30;;;;;;;1.52;1.40;;;;;;;23.21;68.21;98628.97;4464855;32;32305;-78
2022/09/15 06:46:59;;;;;;;2.35;1.23;;;;;;;23.06;68.85;98632.03;4463544;32;33488;-77
2022/09/15 06:49:28;;;;;;;4.22;1.58;;;;;;;23.05;69.53;98630.34;4463566;32;33553;-77
2022/09/15 06:51:57;;;;;;;3.33;1.25;;;;;;;23.17;69.41;98624.03;4464870;32;33437;-77
2022/09/15 06:54:25;;;;;;;3.20;1.58;;;;;;;23.20;69.42;98618.53;4469819;32;33583;-77
2022/09/15 06:56:55;;;;;;;2.00;1.05;;;;;;;23.25;69.58;98623.44;4481461;32;33662;-78
2022/09/15 06:59:24;;;;;;;1.97;1.00;;;;;;;23.34;69.45;98620.87;4475553;32;33875;-76
2022/09/15 07:01:53;;;;;;;3.22;1.40;;;;;;;23.40;68.48;98627.44;4469234;32;34391;-79
2022/09/15 07:04:22;;;;;;;5.30;1.50;;;;;;;23.50;68.31;98627.53;4469959;32;33186;-78
2022/09/15 07:06:51;;;;;;;2.85;1.35;;;;;;;23.47;68.67;98625.97;4473489;32;33223;-76
2022/09/15 07:09:20;;;;;;;2.03;1.77;;;;;;;23.39;69.49;98637.19;4469139;32;33607;-77
2022/09/15 07:11:48;;;;;;;2.25;1.08;;;;;;;23.61;68.56;98632.75;4468731;32;33279;-78
2022/09/15 07:14:19;;;;;;;1.42;0.93;;;;;;;23.64;68.88;98640.44;4467472;32;33990;-78
2022/09/15 07:16:47;;;;;;;1.15;1.00;;;;;;;23.62;68.64;98647.66;4471586;32;33534;-78
2022/09/15 07:19:16;;;;;;;4.22;1.65;;;;;;;23.54;69.61;98643.03;4475474;32;33952;-76
2022/09/15 07:21:45;;;;;;;2.33;1.20;;;;;;;23.60;69.82;98644.31;4473899;32;33907;-76
2022/09/15 07:24:14;;;;;;;1.95;1.15;;;;;;;23.65;68.87;98644.75;4466652;32;32940;-79
2022/09/15 07:26:42;;;;;;;1.73;1.10;;;;;;;23.81;68.44;98650.47;4461560;32;34387;-78
2022/09/15 07:29:11;;;;;;;1.77;1.30;;;;;;;23.92;68.19;98652.25;4467073;32;34042;-76
2022/09/15 07:31:41;;;;;;;2.83;1.83;;;;;;;23.95;67.16;98656.44;4472969;32;34342;-77
2022/09/15 07:34:10;;;;;;;1.27;1.00;;;;;;;23.79;67.78;98663.00;4470001;32;32426;-77
2022/09/15 07:36:39;;;;;;;4.15;1.55;;;;;;;23.41;69.04;98655.59;4461348;32;34202;-78
2022/09/15 07:39:07;;;;;;;5.50;1.50;;;;;;;23.64;67.42;98664.28;4481407;32;33628;-77
2022/09/15 07:41:36;;;;;;;3.67;1.12;;;;;;;23.70;66.48;98661.09;4478450;32;34305;-78
2022/09/15 07:44:07;;;;;;;1.77;1.10;;;;;;;23.57;67.12;98656.00;4475170;32;33017;-79
2022/09/15 07:46:35;;;;;;;4.10;1.52;;;;;;;23.67;67.04;98650.78;4475649;32;34833;-78
2022/09/15 07:49:07;;;;;;;4.10;1.00;;;;;;;23.75;66.74;98651.00;4468000;32;33254;-78
2022/09/15 07:51:35;;;;;;;1.00;0.90;;;;;;;23.82;66.25;98667.22;4479087;32;33646;-77
2022/09/15 07:54:04;;;;;;;3.17;1.15;;;;;;;23.84;65.95;98667.91;4475837;32;33474;-77
2022/09/15 07:56:33;;;;;;;2.10;1.02;;;;;;;23.96;64.37;98668.69;4476110;32;33471;-78
2022/09/15 07:59:01;;;;;;;1.12;0.75;;;;;;;23.98;63.98;98662.28;4471399;32;33881;-76
2022/09/15 08:01:31;;;;;;;2.12;0.65;;;;;;;23.93;64.04;98667.16;4459374;32;33221;-78
2022/09/15 08:03:59;;;;;;;1.67;0.90;;;;;;;23.98;63.53;98677.34;4468224;32;33148;-79
2022/09/15 08:06:29;;;;;;;1.23;0.80;;;;;;;23.76;64.67;98662.44;4474924;32;33034;-80
2022/09/15 08:08:58;;;;;;;4.25;1.73;;;;;;;23.95;64.06;98662.56;4474313;32;34665;-77
2022/09/15 08:11:29;;;;;;;3.28;0.90;;;;;;;24.04;63.56;98667.09;4473394;32;33059;-77
2022/09/15 08:14:00;;;;;;;1.08;0.80;;;;;;;24.15;63.50;98668.81;4480594;32;33800;-78
2022/09/15 08:16:30;;;;;;;1.55;0.98;;;;;;;23.96;64.91;98666.87;4474842;32;33462;-86
2022/09/15 08:18:58;;;;;;;1.87;0.62;;;;;;;24.04;64.66;98677.69;4474977;32;34105;-78
2022/09/15 08:21:27;;;;;;;2.05;1.35;;;;;;;24.34;62.74;98689.28;4470725;32;32881;-78
2022/09/15 08:24:00;;;;;;;1.73;1.12;;;;;;;24.56;62.23;98680.31;4466386;32;33788;-79
2022/09/15 08:26:29;;;;;;;1.12;0.90;;;;;;;24.55;61.63;98673.34;4458974;32;32359;-79
2022/09/15 08:28:59;;;;;;;0.77;0.60;;;;;;;24.74;59.88;98669.06;4475275;32;36173;-77
2022/09/15 08:31:28;;;;;;;1.25;0.80;;;;;;;24.69;60.50;98678.28;4474107;32;34513;-79
2022/09/15 08:33:56;;;;;;;1.60;1.00;;;;;;;24.68;60.12;98671.28;4466386;32;33254;-79
2022/09/15 08:36:26;;;;;;;1.15;0.85;;;;;;;24.69;59.30;98659.72;4475830;32;33499;-79
2022/09/15 08:38:56;;;;;;;4.37;0.77;;;;;;;24.77;59.24;98653.75;4475065;32;35851;-78
2022/09/15 08:41:28;;;;;;;0.57;0.52;;;;;;;24.89;57.89;98644.69;4472739;32;33476;-77
2022/09/15 08:44:03;;;;;;;1.20;0.70;;;;;;;25.02;57.47;98639.13;4474660;32;33616;-77
2022/09/15 08:46:36;;;;;;;2.22;0.68;;;;;;;25.26;56.26;98635.25;4478722;32;33461;-78
2022/09/15 08:49:09;;;;;;;1.95;0.90;;;;;;;25.25;54.84;98633.56;4479280;32;33946;-77
2022/09/15 08:51:41;;;;;;;1.62;0.82;;;;;;;25.20;55.54;98631.34;4471641;32;33442;-79
2022/09/15 08:54:16;;;;;;;2.50;0.65;;;;;;;25.13;56.22;98624.91;4473586;32;32920;-80
2022/09/15 08:56:46;;;;;;;0.80;0.50;;;;;;;25.48;53.61;98627.00;4474624;32;34288;-79
2022/09/15 08:59:19;;;;;;;1.73;0.95;;;;;;;25.37;52.79;98624.50;4480142;32;33442;-77
2022/09/15 09:02:03;;;;;;;1.03;0.60;;;;;;;25.20;53.15;98626.06;4472047;32;35351;-79
2022/09/15 09:04:45;;;;;;;0.37;0.32;;;;;;;25.25;54.50;98613.19;4472181;32;33017;-79
2022/09/15 09:07:24;;;;;;;1.95;0.70;;;;;;;25.56;53.92;98623.63;4473017;32;33602;-77
2022/09/15 09:09:56;;;;;;;1.40;0.60;;;;;;;25.44;52.57;98609.69;4473610;32;33767;-80
2022/09/15 09:12:50;;;;;;;0.77;0.60;;;;;;;25.60;51.33;98610.94;4475159;32;34105;-79
2022/09/15 09:15:25;;;;;;;1.87;0.60;;;;;;;25.71;51.82;98610.78;4464516;32;31456;-78
2022/09/15 09:18:13;;;;;;;1.12;0.60;;;;;;;25.85;51.31;98606.81;4474264;32;33965;-80
2022/09/15 09:20:48;;;;;;;1.27;0.50;;;;;;;25.86;50.56;98598.75;4472042;32;34934;-80
2022/09/15 09:23:19;;;;;;;0.65;0.30;;;;;;;26.04;50.33;98597.97;4469649;32;32709;-78
2022/09/15 09:25:51;;;;;;;1.12;0.40;;;;;;;26.00;50.18;98604.56;4463262;32;32992;-82
2022/09/15 09:28:30;;;;;;;;;;;;;;;26.16;49.98;98596.81;4464188;32;33527;-81
2022/09/15 09:31:06;;;;;;;0.50;0.50;;;;;;;26.30;48.31;98601.66;4470916;32;33759;-80
2022/09/15 09:33:46;;;;;;;0.73;0.45;;;;;;;26.29;48.05;98601.78;4458404;32;32993;-79
2022/09/15 09:36:16;;;;;;;0.50;0.50;;;;;;;26.25;48.77;98595.09;4458367;32;33244;-78
2022/09/15 09:38:46;;;;;;;1.75;0.60;;;;;;;26.57;49.15;98602.66;4464279;32;34696;-81
2022/09/15 09:41:17;;;;;;;0.40;0.40;;;;;;;26.42;49.23;98596.97;4479748;32;33974;-78
2022/09/15 09:43:47;;;;;;;;;;;;;;;26.49;48.08;98594.56;4478749;32;33651;-79
2022/09/15 09:46:18;;;;;;;0.47;0.45;;;;;;;26.90;47.36;98592.38;4473837;32;32570;-81
2022/09/15 09:48:48;;;;;;;;;;;;;;;26.83;46.40;98586.81;4464925;32;33676;-80
2022/09/15 09:51:30;;;;;;;0.25;0.25;;;;;;;26.96;46.54;98581.94;4468309;32;34042;-79
2022/09/15 09:54:05;;;;;;;0.88;0.32;;;;;;;27.10;46.75;98577.94;4475353;32;34577;-80
2022/09/15 09:56:34;;;;;;;1.23;0.43;;;;;;;27.38;45.87;98573.38;4474159;32;34882;-78
2022/09/15 09:59:04;;;;;;;1.08;0.50;;;;;;;27.30;44.19;98567.13;4474213;32;34499;-80
2022/09/15 10:01:32;;;;;;;1.60;0.68;;;;;;;27.44;44.86;98571.91;4469172;32;33628;-78
2022/09/15 10:04:13;;;;;;;0.75;0.32;;;;;;;27.52;43.42;98563.13;4470083;32;33835;-81
2022/09/15 10:06:43;;;;;;;0.20;0.20;;;;;;;27.58;43.44;98547.38;4474847;32;32875;-79
2022/09/15 10:09:15;;;;;;;2.17;0.40;;;;;;;27.31;44.11;98537.69;4474321;32;34987;-79
2022/09/15 10:11:46;;;;;;;0.20;0.20;;;;;;;27.35;43.98;98539.06;4470154;32;34327;-79
2022/09/15 10:14:22;;;;;;;;;;;;;;;27.53;44.95;98524.88;4468268;32;33867;-79
2022/09/15 10:17:01;;;;;;;0.65;0.30;;;;;;;27.72;43.01;98532.66;4471698;32;32190;-80
2022/09/15 10:19:32;;;;;;;1.27;0.32;;;;;;;27.67;44.20;98525.13;4475112;32;33442;-80
2022/09/15 10:22:02;;;;;;;1.00;0.57;;;;;;;27.70;43.53;98510.62;4469201;32;34625;-79
2022/09/15 10:24:35;;;;;;;4.00;0.50;;;;;;;27.75;43.78;98504.84;4469008;32;33747;-78
2022/09/15 10:27:10;;;;;;;0.82;0.60;;;;;;;27.98;43.78;98500.66;4472656;32;33375;-80
2022/09/15 10:29:40;;;;;;;1.33;0.80;;;;;;;28.06;42.74;98494.53;4467456;32;32903;-79
2022/09/15 10:32:27;;;;;;;0.98;0.40;;;;;;;28.21;42.64;98497.41;4477468;32;33497;-78
2022/09/15 10:35:07;;;;;;;0.32;0.32;;;;;;;28.39;42.62;98490.13;4457067;32;33226;-80
2022/09/15 10:37:43;;;;;;;1.02;0.52;;;;;;;28.78;43.37;98488.69;4467115;32;34122;-78
2022/09/15 10:40:31;;;;;;;1.62;0.52;;;;;;;28.93;41.60;98493.22;4472189;32;35056;-78
2022/09/15 10:43:12;;;;;;;2.75;0.65;;;;;;;29.04;41.43;98502.69;4458377;32;32762;-80
2022/09/15 10:45:43;;;;;;;;;;;;;;;29.00;41.49;98503.22;4458724;32;33292;-80
2022/09/15 10:48:24;;;;;;;;;;;;;;;29.12;40.49;98499.25;4475176;32;31952;-78
2022/09/15 10:50:57;;;;;;;1.87;0.30;;;;;;;29.03;40.87;98505.56;4466708;32;33919;-78
2022/09/15 10:53:36;;;;;;;1.20;0.45;;;;;;;28.92;42.07;98502.22;4466858;32;33758;-80
2022/09/15 10:56:17;;;;;;;1.33;0.47;;;;;;;28.94;42.13;98502.88;4468295;32;33616;-79
2022/09/15 10:58:48;;;;;;;;;;;;;;;28.90;41.35;98514.06;4465262;32;33016;-79
2022/09/15 11:01:38;;;;;;;1.75;0.70;;;;;;;29.02;42.29;98511.88;4471633;32;34752;-79
2022/09/15 11:04:19;;;;;;;0.90;0.50;;;;;;;28.96;41.87;98513.41;4472737;32;33566;-81
2022/09/15 11:06:52;;;;;;;1.05;0.80;;;;;;;28.80;42.63;98508.03;4467348;32;33837;-80
2022/09/15 11:09:24;;;;;;;0.88;0.60;;;;;;;28.75;44.22;98505.03;4466419;32;32997;-79
2022/09/15 11:12:02;;;;;;;1.37;0.60;;;;;;;28.49;46.13;98498.84;4467321;32;32821;-78
2022/09/15 11:14:59;;;;;;;2.58;0.82;;;;;;;28.75;46.80;98503.19;4475622;32;33874;-79
2022/09/15 11:17:43;;;;;;;4.00;1.23;;;;;;;28.68;47.78;98499.53;4462681;32;33642;-80
2022/09/15 11:20:38;;;;;;;2.25;0.80;;;;;;;28.42;48.49;98500.47;4476564;32;32933;-80
2022/09/15 11:23:11;;;;;;;3.65;1.40;;;;;;;28.35;48.73;98506.63;4466879;32;34003;-80
2022/09/15 11:25:43;;;;;;;1.80;0.65;;;;;;;28.16;49.21;98497.88;4459206;32;33956;-79
2022/09/15 11:28:17;;;;;;;4.55;0.90;;;;;;;28.14;49.36;98504.38;4458052;32;32923;-80
2022/09/15 11:30:52;;;;;;;2.95;0.98;;;;;;;27.99;50.12;98507.66;4471373;32;33545;-79
2022/09/15 11:33:26;;;;;;;1.48;0.70;;;;;;;27.94;50.40;98506.47;4473340;32;33602;-78
2022/09/15 11:36:00;;;;;;;0.80;0.50;;;;;;;27.90;50.24;98495.28;4458457;32;34898;-80
2022/09/15 11:38:37;;;;;;;3.80;0.88;;;;;;;27.95;50.54;98484.13;4471951;32;34577;-80
2022/09/15 11:41:17;;;;;;;2.70;0.90;;;;;;;27.71;51.00;98474.16;4475799;32;32953;-79
2022/09/15 11:43:54;;;;;;;1.73;0.85;;;;;;;27.55;51.44;98461.63;4472958;32;34088;-81
2022/09/15 11:46:28;;;;;;;3.70;1.35;;;;;;;27.65;51.50;98455.16;4464989;32;32988;-79
2022/09/15 11:49:01;;;;;;;2.75;0.93;;;;;;;27.70;51.29;98448.53;4475197;32;34251;-78
2022/09/15 11:51:33;;;;;;;1.65;0.60;;;;;;;27.71;51.19;98432.38;4464979;32;32660;-78
2022/09/15 11:54:05;;;;;;;2.37;0.95;;;;;;;27.77;51.62;98418.41;4473673;32;33371;-80
2022/09/15 11:56:37;;;;;;;3.55;0.88;;;;;;;27.75;51.57;98414.25;4475279;32;34364;-80
2022/09/15 11:59:15;;;;;;;3.95;0.90;;;;;;;27.93;51.57;98416.81;4480662;32;33500;-78